createdAt,value
2023-01-10T00:02:14.815Z,71.68
2023-01-10T00:04:48.379Z,61.35
2023-01-10T00:07:15.552Z,55.05
2023-01-10T00:09:49.489Z,74.78
2023-01-10T00:12:35.548Z,59.53
2023-01-10T00:15:09.400Z,69.03
2023-01-10T00:17:36.610Z,63.25
2023-01-10T00:20:03.719Z,92.70
2023-01-10T00:22:37.466Z,82.25
2023-01-10T00:25:04.887Z,72.70
2023-01-10T00:27:38.422Z,99.43
2023-01-10T00:30:15.200Z,73.72
2023-01-10T00:32:49.544Z,66.88
2023-01-10T00:35:16.725Z,63.28
2023-01-10T00:37:43.841Z,51.83
2023-01-10T00:40:18.347Z,54.50
2023-01-10T00:43:04.227Z,66.13
2023-01-10T00:45:38.346Z,67.55
2023-01-10T00:48:05.598Z,79.72
2023-01-10T00:50:39.404Z,70.90
2023-01-10T00:53:06.630Z,59.88
2023-01-10T00:55:34.246Z,57.65
2023-01-10T01:00:35.606Z,56.13
2023-01-10T01:03:09.520Z,64.93
2023-01-10T01:05:44.000Z,78.57
2023-01-10T01:08:18.353Z,96.05
2023-01-10T01:10:45.547Z,78.20
2023-01-10T01:13:37.359Z,91.93
2023-01-10T01:16:04.643Z,79.50
2023-01-10T01:18:39.557Z,78.22
2023-01-10T01:21:08.358Z,66.47
2023-01-10T01:23:35.649Z,97.80
2023-01-10T01:26:09.370Z,76.88
2023-01-10T01:28:36.552Z,70.30
2023-01-10T01:31:17.439Z,65.25
2023-01-10T01:33:44.679Z,54.85
2023-01-10T01:36:12.258Z,59.40
2023-01-10T01:41:31.720Z,68.85
2023-01-10T01:44:18.466Z,69.40
2023-01-10T01:46:47.542Z,70.53
2023-01-10T01:49:16.467Z,82.10
2023-01-10T01:51:52.340Z,65.60
2023-01-10T01:54:19.749Z,60.42
2023-01-10T01:56:56.351Z,53.90
2023-01-10T01:59:40.978Z,48.35
2023-01-10T02:02:18.500Z,65.50
2023-01-10T02:04:50.495Z,73.45
2023-01-10T02:07:18.235Z,65.50
2023-01-10T02:10:03.426Z,64.93
2023-01-10T02:12:31.111Z,64.75
2023-01-10T02:15:05.397Z,65.93
2023-01-10T02:17:46.368Z,64.22
2023-01-10T02:20:20.368Z,66.75
2023-01-10T02:23:01.043Z,58.13
2023-01-10T02:25:40.414Z,94.82
2023-01-10T02:28:13.800Z,79.60
2023-01-10T02:31:06.597Z,68.75
2023-01-10T02:33:33.866Z,76.38
2023-01-10T02:36:03.781Z,64.15
2023-01-10T02:39:03.410Z,79.78
2023-01-10T02:41:40.533Z,85.65
2023-01-10T02:44:35.387Z,87.30
2023-01-10T02:47:05.911Z,66.50
2023-01-10T02:49:48.500Z,92.43
2023-01-10T02:52:18.854Z,76.93
2023-01-10T02:54:46.151Z,83.25
2023-01-10T02:57:29.453Z,83.82
2023-01-10T03:00:18.672Z,86.90
2023-01-10T03:02:52.393Z,92.75
2023-01-10T03:05:28.565Z,72.88
2023-01-10T03:08:20.426Z,86.18
2023-01-10T03:10:53.778Z,68.35
2023-01-10T03:13:31.361Z,101.75
2023-01-10T03:15:59.194Z,95.68
2023-01-10T03:18:39.421Z,59.75
2023-01-10T03:21:08.555Z,58.25
2023-01-10T03:23:35.873Z,82.00
2023-01-10T03:26:10.376Z,82.47
2023-01-10T03:28:40.600Z,88.22
2023-01-10T03:31:17.410Z,75.22
2023-01-10T03:33:44.715Z,101.13
2023-01-10T03:36:29.479Z,93.50
2023-01-10T03:39:09.454Z,89.07
2023-01-10T03:41:46.400Z,100.35
2023-01-10T03:44:37.880Z,76.07
2023-01-10T03:47:13.384Z,53.80
2023-01-10T03:49:41.886Z,59.92
2023-01-10T03:52:17.404Z,63.70
2023-01-10T03:54:45.748Z,56.88
2023-01-10T03:57:33.397Z,91.05
2023-01-10T04:00:07.667Z,110.35
2023-01-10T04:02:41.434Z,92.20
2023-01-10T04:05:09.397Z,75.18
2023-01-10T04:07:36.925Z,110.00
2023-01-10T04:12:37.618Z,75.95
2023-01-10T04:15:05.128Z,82.05
2023-01-10T04:20:05.678Z,70.25
2023-01-10T04:22:39.434Z,58.03
2023-01-10T04:25:06.907Z,66.78
2023-01-10T04:30:07.606Z,70.88
2023-01-10T04:32:35.160Z,78.88
2023-01-10T04:37:35.647Z,83.93
2023-01-10T04:40:03.065Z,65.50
2023-01-10T04:42:37.436Z,80.60
2023-01-10T04:45:04.758Z,103.70
2023-01-10T04:47:38.465Z,83.05
2023-01-10T04:50:05.736Z,59.08
2023-01-10T04:52:32.974Z,75.47
2023-01-10T04:55:06.591Z,60.88
2023-01-10T04:57:40.379Z,62.10
2023-01-10T05:00:21.495Z,79.95
2023-01-10T05:02:48.737Z,70.68
2023-01-10T05:05:15.983Z,71.10
2023-01-10T05:07:53.395Z,75.22
2023-01-10T05:10:20.961Z,70.95
2023-01-10T05:15:23.145Z,69.32
2023-01-10T05:17:51.299Z,60.95
2023-01-10T05:20:25.402Z,59.90
2023-01-10T05:22:52.764Z,46.78
2023-01-10T05:25:26.549Z,59.15
2023-01-10T05:27:53.754Z,64.70
2023-01-10T05:30:20.897Z,54.20
2023-01-10T05:32:54.476Z,52.22
2023-01-10T05:35:21.663Z,47.40
2023-01-10T05:37:55.460Z,58.65
2023-01-10T05:40:22.706Z,50.97
2023-01-10T05:42:49.850Z,52.03
2023-01-10T05:45:23.499Z,50.40
2023-01-10T05:47:50.663Z,42.08
2023-01-10T05:50:24.485Z,35.70
2023-01-10T05:52:51.732Z,58.40
2023-01-10T05:55:18.863Z,37.60
2023-01-10T05:57:59.507Z,33.47
2023-01-10T06:00:33.305Z,48.05
2023-01-10T06:03:07.648Z,45.10
2023-01-10T06:05:34.935Z,55.28
2023-01-10T06:08:02.033Z,37.88
2023-01-10T06:10:35.436Z,37.67
2023-01-10T06:13:02.624Z,44.50
2023-01-10T06:15:36.520Z,41.63
2023-01-10T06:18:03.754Z,38.40
2023-01-10T06:20:31.238Z,35.60
2023-01-10T06:25:36.958Z,34.20
2023-01-10T06:28:04.705Z,26.52
2023-01-10T06:30:38.457Z,35.97
2023-01-10T06:33:06.523Z,39.45
2023-01-10T06:35:40.478Z,47.05
2023-01-10T06:38:07.746Z,29.25
2023-01-10T06:40:34.908Z,29.48
2023-01-10T06:43:08.696Z,25.27
2023-01-10T06:45:35.958Z,36.10
2023-01-10T06:48:09.447Z,30.33
2023-01-10T06:50:36.646Z,41.05
2023-01-10T06:53:11.465Z,32.40
2023-01-10T06:55:38.746Z,29.85
2023-01-10T06:58:12.478Z,23.65
2023-01-10T07:00:40.336Z,32.03
2023-01-10T07:03:07.864Z,23.55
2023-01-10T07:08:08.599Z,29.52
2023-01-10T07:10:42.523Z,19.02
2023-01-10T07:13:09.856Z,26.60
2023-01-10T07:15:44.557Z,23.42
2023-01-10T07:18:12.866Z,38.40
2023-01-10T07:20:40.332Z,28.17
2023-01-10T07:23:14.550Z,35.78
2023-01-10T07:25:41.816Z,38.28
2023-01-10T07:28:15.498Z,24.05
2023-01-10T07:30:42.720Z,33.63
2023-01-10T07:33:09.841Z,22.17
2023-01-10T07:35:43.460Z,27.38
2023-01-10T07:38:10.751Z,29.70
2023-01-10T07:40:44.568Z,30.27
2023-01-10T07:43:11.854Z,33.83
2023-01-10T07:45:38.928Z,27.00
2023-01-10T07:48:13.476Z,35.15
2023-01-10T07:50:40.722Z,33.83
2023-01-10T07:53:15.581Z,28.75
2023-01-10T07:55:45.761Z,33.38
2023-01-10T07:58:26.578Z,33.35
2023-01-10T08:01:01.240Z,23.02
2023-01-10T08:03:36.643Z,33.85
2023-01-10T08:06:05.434Z,41.17
2023-01-10T08:08:33.465Z,33.00
2023-01-10T08:11:09.513Z,35.92
2023-01-10T08:13:36.703Z,38.90
2023-01-10T08:16:14.499Z,30.05
2023-01-10T08:18:43.270Z,45.08
2023-01-10T08:21:10.824Z,47.03
2023-01-10T08:26:11.695Z,29.17
2023-01-10T08:28:38.819Z,45.05
2023-01-10T08:31:13.504Z,29.73
2023-01-10T08:33:41.443Z,34.85
2023-01-10T08:36:22.571Z,38.67
2023-01-10T08:38:51.044Z,28.52
2023-01-10T08:41:18.128Z,34.95
2023-01-10T08:43:51.470Z,39.35
2023-01-10T08:46:20.147Z,54.88
2023-01-10T08:48:55.634Z,32.78
2023-01-10T08:51:23.008Z,37.20
2023-01-10T08:53:50.107Z,48.40
2023-01-10T08:56:23.477Z,34.05
2023-01-10T08:58:57.446Z,42.05
2023-01-10T09:01:37.604Z,35.17
2023-01-10T09:04:05.427Z,47.92
2023-01-10T09:06:32.546Z,40.13
2023-01-10T09:09:06.564Z,39.55
2023-01-10T09:11:33.759Z,29.27
2023-01-10T09:14:00.860Z,36.13
2023-01-10T09:16:34.548Z,42.95
2023-01-10T09:19:01.690Z,47.03
2023-01-10T09:21:35.511Z,40.25
2023-01-10T09:24:02.782Z,41.22
2023-01-10T09:26:29.870Z,46.63
2023-01-10T09:29:03.468Z,35.30
2023-01-10T09:31:30.689Z,43.83
2023-01-10T09:34:04.614Z,41.95
2023-01-10T09:36:32.485Z,46.63
2023-01-10T09:38:59.622Z,36.90
2023-01-10T09:41:48.462Z,39.85
2023-01-10T09:46:56.602Z,36.13
2023-01-10T09:49:42.757Z,48.33
2023-01-10T09:52:39.496Z,39.95
2023-01-10T09:55:17.277Z,32.05
2023-01-10T09:57:51.480Z,40.20
2023-01-10T10:00:27.546Z,32.60
2023-01-10T10:03:02.523Z,41.17
2023-01-10T10:05:29.670Z,35.80
2023-01-10T10:07:58.512Z,30.25
2023-01-10T10:10:42.553Z,31.98
2023-01-10T10:13:32.382Z,37.85
2023-01-10T10:16:16.579Z,47.30
2023-01-10T10:19:02.336Z,32.97
2023-01-10T10:21:40.474Z,44.22
2023-01-10T10:26:42.617Z,42.72
2023-01-10T10:29:26.080Z,34.35
2023-01-10T10:32:06.732Z,49.30
2023-01-10T10:34:37.483Z,36.08
2023-01-10T10:37:23.511Z,48.40
2023-01-10T10:40:35.423Z,39.63
2023-01-10T10:43:12.332Z,34.58
2023-01-10T10:45:51.449Z,32.63
2023-01-10T10:48:38.595Z,29.42
2023-01-10T10:51:16.285Z,43.13
2023-01-10T10:53:50.624Z,34.85
2023-01-10T10:56:20.330Z,27.50
2023-01-10T10:59:03.651Z,35.85
2023-01-10T11:01:37.678Z,28.55
2023-01-10T11:04:30.543Z,33.58
2023-01-10T11:07:04.415Z,35.42
2023-01-10T11:10:01.814Z,28.10
2023-01-10T11:12:39.439Z,26.42
2023-01-10T11:15:06.990Z,46.00
2023-01-10T11:20:16.681Z,41.03
2023-01-10T11:22:59.445Z,34.95
2023-01-10T11:25:26.710Z,28.98
2023-01-10T11:28:08.716Z,24.15
2023-01-10T11:30:37.796Z,28.27
2023-01-10T11:33:15.436Z,24.92
2023-01-10T11:35:56.484Z,41.85
2023-01-10T11:38:31.425Z,18.05
2023-01-10T11:41:03.298Z,30.75
2023-01-10T11:43:38.450Z,33.75
2023-01-10T11:46:17.047Z,26.17
2023-01-10T11:49:10.438Z,32.22
2023-01-10T11:51:38.729Z,32.13
2023-01-10T11:54:13.449Z,35.97
2023-01-10T11:56:41.689Z,24.15
2023-01-10T11:59:25.453Z,31.40
2023-01-10T12:01:57.539Z,25.25
2023-01-10T12:04:31.449Z,28.98
2023-01-10T12:07:01.575Z,30.42
2023-01-10T12:09:39.535Z,30.52
2023-01-10T12:12:16.812Z,24.40
2023-01-10T12:14:50.487Z,30.30
2023-01-10T12:17:22.044Z,30.77
2023-01-10T12:19:49.855Z,39.63
2023-01-10T12:22:23.508Z,29.35
2023-01-10T12:24:52.265Z,29.80
2023-01-10T12:27:26.553Z,33.65
2023-01-10T12:30:01.875Z,33.60
2023-01-10T12:32:38.544Z,33.08
2023-01-10T12:35:08.435Z,40.38
2023-01-10T12:37:51.538Z,36.72
2023-01-10T12:40:37.255Z,32.72
2023-01-10T12:43:33.522Z,36.13
2023-01-10T12:46:12.692Z,32.53
2023-01-10T12:48:55.532Z,30.00
2023-01-10T12:51:24.541Z,31.02
2023-01-10T12:54:02.563Z,53.13
2023-01-10T12:56:30.008Z,33.63
2023-01-10T12:59:37.114Z,27.98
2023-01-10T13:02:17.834Z,33.50
2023-01-10T13:04:55.516Z,36.83
2023-01-10T13:07:23.279Z,33.40
2023-01-10T13:09:57.512Z,43.60
2023-01-10T13:12:36.457Z,43.03
2023-01-10T13:15:17.549Z,48.53
2023-01-10T13:17:50.065Z,43.05
2023-01-10T13:20:23.566Z,45.63
2023-01-10T13:22:58.321Z,61.72
2023-01-10T13:25:36.558Z,34.83
2023-01-10T13:30:44.541Z,51.72
2023-01-10T13:33:25.571Z,58.80
2023-01-10T13:36:00.717Z,39.85
2023-01-10T13:38:31.523Z,53.15
2023-01-10T13:41:00.135Z,42.72
2023-01-10T13:43:41.655Z,41.60
2023-01-10T13:46:24.558Z,36.05
2023-01-10T13:48:58.542Z,32.95
2023-01-10T13:51:25.809Z,31.48
2023-01-10T13:54:09.604Z,32.95
2023-01-10T13:56:38.333Z,37.03
2023-01-10T14:00:06.683Z,29.05
2023-01-10T14:02:34.898Z,34.58
2023-01-10T14:05:03.766Z,43.70
2023-01-10T14:07:42.569Z,35.22
2023-01-10T14:10:33.449Z,38.78
2023-01-10T14:13:11.180Z,46.45
2023-01-10T14:15:49.515Z,30.67
2023-01-10T14:20:44.105Z,34.47
2023-01-10T14:25:45.569Z,28.55
2023-01-10T14:28:29.607Z,50.13
2023-01-10T14:31:15.399Z,23.98
2023-01-10T14:33:49.689Z,29.42
2023-01-10T14:36:20.663Z,31.45
2023-01-10T14:38:56.746Z,25.25
2023-01-10T14:41:30.255Z,34.30
2023-01-10T14:44:10.521Z,34.80
2023-01-10T14:46:55.210Z,28.23
2023-01-10T14:49:33.647Z,32.65
2023-01-10T14:52:14.162Z,24.48
2023-01-10T14:54:47.602Z,33.50
2023-01-10T14:57:18.932Z,31.38
2023-01-10T15:00:10.603Z,33.22
2023-01-10T15:02:37.848Z,37.22
2023-01-10T15:05:34.580Z,52.20
2023-01-10T15:08:20.308Z,38.15
2023-01-10T15:10:54.681Z,38.67
2023-01-10T15:13:24.445Z,31.98
2023-01-10T15:15:58.596Z,41.38
2023-01-10T15:18:38.627Z,37.83
2023-01-10T15:21:12.749Z,43.88
2023-01-10T15:23:41.091Z,58.28
2023-01-10T15:26:10.688Z,50.80
2023-01-10T15:28:44.554Z,47.47
2023-01-10T15:31:16.681Z,41.20
2023-01-10T15:33:52.565Z,45.33
2023-01-10T15:36:21.356Z,66.65
2023-01-10T15:38:55.597Z,54.08
2023-01-10T15:41:24.185Z,40.67
2023-01-10T15:44:00.604Z,51.28
2023-01-10T15:46:27.893Z,53.75
2023-01-10T15:49:09.577Z,52.05
2023-01-10T15:51:45.496Z,46.15
2023-01-10T15:54:24.375Z,48.53
2023-01-10T15:57:04.572Z,69.90
2023-01-10T15:59:44.756Z,63.58
2023-01-10T16:02:32.801Z,52.05
2023-01-10T16:05:06.699Z,60.75
2023-01-10T16:07:42.654Z,53.88
2023-01-10T16:10:18.660Z,62.20
2023-01-10T16:13:10.511Z,56.67
2023-01-10T16:15:47.593Z,52.25
2023-01-10T16:18:14.739Z,65.30
2023-01-10T16:20:50.603Z,58.03
2023-01-10T16:23:19.768Z,82.45
2023-01-10T16:25:48.068Z,61.13
2023-01-10T16:28:22.607Z,65.10
2023-01-10T16:30:49.790Z,56.10
2023-01-10T16:33:24.670Z,72.05
2023-01-10T16:35:53.660Z,64.70
2023-01-10T16:38:27.622Z,64.82
2023-01-10T16:40:57.681Z,70.30
2023-01-10T16:43:35.730Z,70.00
2023-01-10T16:46:03.865Z,63.70
2023-01-10T16:48:31.668Z,73.93
2023-01-10T16:51:25.655Z,60.72
2023-01-10T16:53:52.820Z,76.53
2023-01-10T16:56:21.492Z,62.38
2023-01-10T16:58:55.666Z,86.70
2023-01-10T17:01:34.708Z,77.60
2023-01-10T17:04:08.707Z,64.18
2023-01-10T17:06:35.934Z,70.28
2023-01-10T17:09:09.717Z,75.28
2023-01-10T17:11:38.747Z,69.75
2023-01-10T17:14:06.365Z,58.75
2023-01-10T17:16:41.653Z,61.00
2023-01-10T17:19:09.039Z,71.95
2023-01-10T17:21:42.726Z,69.50
2023-01-10T17:24:10.650Z,60.28
2023-01-10T17:26:37.760Z,58.08
2023-01-10T17:29:11.653Z,58.30
2023-01-10T17:31:38.970Z,78.88
2023-01-10T17:34:06.285Z,65.10
2023-01-10T17:36:45.664Z,49.33
2023-01-10T17:39:19.681Z,52.30
2023-01-10T17:41:46.895Z,60.80
2023-01-10T17:44:14.149Z,42.00
2023-01-10T17:46:47.635Z,45.58
2023-01-10T17:49:14.721Z,45.80
2023-01-10T17:51:48.621Z,46.38
2023-01-10T17:54:15.978Z,50.83
2023-01-10T17:56:43.145Z,44.83
2023-01-10T17:59:16.591Z,42.90
2023-01-10T18:01:43.785Z,72.90
2023-01-10T18:04:17.625Z,50.55
2023-01-10T18:06:44.834Z,54.42
2023-01-10T18:09:12.066Z,50.33
2023-01-10T18:11:45.603Z,45.22
2023-01-10T18:14:37.587Z,50.50
2023-01-10T18:17:06.506Z,54.63
2023-01-10T18:19:34.470Z,37.80
2023-01-10T18:22:08.695Z,53.33
2023-01-10T18:24:35.855Z,36.25
2023-01-10T18:27:09.604Z,35.55
2023-01-10T18:29:36.802Z,43.83
2023-01-10T18:32:10.709Z,45.08
2023-01-10T18:34:37.940Z,58.42
2023-01-10T18:37:11.595Z,36.85
2023-01-10T18:39:38.863Z,45.10
2023-01-10T18:42:12.855Z,39.88
2023-01-10T18:44:41.324Z,55.90
2023-01-10T18:47:08.401Z,55.85
2023-01-10T18:49:42.701Z,65.78
2023-01-10T18:52:09.904Z,46.53
2023-01-10T18:54:37.040Z,46.90
2023-01-10T18:57:10.641Z,46.33
2023-01-10T18:59:58.572Z,47.10
2023-01-10T19:02:32.703Z,43.77
2023-01-10T19:04:59.931Z,39.58
2023-01-10T19:07:33.741Z,41.55
2023-01-10T19:10:00.890Z,32.90
2023-01-10T19:12:28.501Z,42.90
2023-01-10T19:17:29.977Z,35.67
2023-01-10T19:20:03.749Z,39.67
2023-01-10T19:22:31.096Z,36.95
2023-01-10T19:25:04.671Z,33.08
2023-01-10T19:27:31.909Z,35.28
2023-01-10T19:29:58.993Z,43.28
2023-01-10T19:32:33.728Z,43.63
2023-01-10T19:35:01.061Z,38.38
2023-01-10T19:37:34.760Z,53.95
2023-01-10T19:40:02.002Z,30.77
2023-01-10T19:42:29.093Z,37.95
2023-01-10T19:45:02.645Z,33.65
2023-01-10T19:47:29.816Z,28.83
2023-01-10T19:50:03.649Z,23.48
2023-01-10T19:52:30.796Z,38.97
2023-01-10T19:55:04.638Z,24.42
2023-01-10T19:57:32.745Z,35.90
2023-01-10T20:00:06.713Z,29.25
2023-01-10T20:02:34.604Z,27.73
2023-01-10T20:05:09.670Z,32.88
2023-01-10T20:07:36.957Z,42.40
2023-01-10T20:10:10.718Z,30.42
2023-01-10T20:12:37.947Z,27.23
2023-01-10T20:15:11.739Z,32.72
2023-01-10T20:17:40.536Z,25.55
2023-01-10T20:20:07.866Z,45.17
2023-01-10T20:22:41.727Z,37.55
2023-01-10T20:25:09.121Z,36.63
2023-01-10T20:27:42.739Z,33.17
2023-01-10T20:30:13.876Z,30.27
2023-01-10T20:32:41.085Z,32.30
2023-01-10T20:35:14.755Z,36.47
2023-01-10T20:37:41.858Z,30.30
2023-01-10T20:40:09.785Z,32.58
2023-01-10T20:42:43.679Z,36.15
2023-01-10T20:45:10.867Z,41.60
2023-01-10T20:47:44.762Z,72.80
2023-01-10T20:50:12.067Z,91.53
2023-01-10T20:52:39.146Z,99.18
2023-01-10T20:55:12.685Z,53.22
2023-01-10T20:57:39.943Z,47.92
2023-01-10T21:00:13.743Z,43.40
2023-01-10T21:02:47.562Z,40.97
2023-01-10T21:05:21.742Z,44.30
2023-01-10T21:07:48.884Z,41.25
2023-01-10T21:10:16.126Z,45.28
2023-01-10T21:12:49.703Z,47.25
2023-01-10T21:15:16.867Z,44.33
2023-01-10T21:17:50.823Z,38.90
2023-01-10T21:20:18.063Z,42.70
2023-01-10T21:22:46.638Z,44.03
2023-01-10T21:25:20.767Z,44.63
2023-01-10T21:27:48.415Z,52.17
2023-01-10T21:30:16.236Z,47.30
2023-01-10T21:32:49.748Z,51.45
2023-01-10T21:35:16.985Z,44.70
2023-01-10T21:37:50.712Z,45.50
2023-01-10T21:40:17.880Z,39.55
2023-01-10T21:42:45.357Z,34.65
2023-01-10T21:45:19.653Z,33.28
2023-01-10T21:47:46.891Z,41.20
2023-01-10T21:50:22.565Z,31.60
2023-01-10T21:52:49.893Z,42.47
2023-01-10T21:55:17.007Z,42.28
2023-01-10T21:57:50.739Z,34.60
2023-01-10T22:00:24.678Z,29.55
2023-01-10T22:03:06.807Z,36.85
2023-01-10T22:05:34.003Z,40.28
2023-01-10T22:08:01.274Z,35.42
2023-01-10T22:10:34.660Z,38.83
2023-01-10T22:13:01.799Z,40.53
2023-01-10T22:15:36.829Z,41.45
2023-01-10T22:18:04.109Z,34.17
2023-01-10T22:20:31.263Z,37.05
2023-01-10T22:23:04.657Z,39.08
2023-01-10T22:25:31.915Z,30.30
2023-01-10T22:28:05.891Z,31.50
2023-01-10T22:30:33.320Z,33.20
2023-01-10T22:33:00.487Z,45.58
2023-01-10T22:35:34.703Z,34.90
2023-01-10T22:38:01.946Z,53.15
2023-01-10T22:40:29.072Z,42.50
2023-01-10T22:43:02.666Z,34.92
2023-01-10T22:45:33.363Z,27.33
2023-01-10T22:48:06.702Z,33.83
2023-01-10T22:50:33.866Z,36.85
2023-01-10T22:53:08.083Z,37.03
2023-01-10T22:55:35.373Z,27.48
2023-01-10T22:58:02.499Z,43.10
2023-01-10T23:03:21.930Z,25.30
2023-01-10T23:05:55.668Z,34.20
2023-01-10T23:08:22.988Z,31.42
2023-01-10T23:13:23.674Z,38.22
2023-01-10T23:16:05.059Z,38.50
2023-01-10T23:18:38.756Z,35.58
2023-01-10T23:21:12.647Z,39.72
2023-01-10T23:23:39.860Z,29.77
2023-01-10T23:26:08.147Z,38.00
2023-01-10T23:28:50.752Z,36.42
2023-01-10T23:31:22.614Z,34.42
2023-01-10T23:33:50.524Z,34.35
2023-01-10T23:36:24.691Z,23.38
2023-01-10T23:39:05.681Z,27.30
2023-01-10T23:41:39.838Z,28.90
2023-01-10T23:44:07.443Z,29.38
2023-01-10T23:49:08.764Z,27.33
2023-01-10T23:51:37.372Z,27.25
2023-01-10T23:54:11.718Z,21.55
2023-01-10T23:56:38.926Z,28.17
2023-01-10T23:59:06.144Z,33.55
